Time;durP1;ratioP1;P1;durP2;ratioP2;P2;SDS_P1;SDS_P2;PMS_P1;PMS_P2;Temp;Humidity;BMP_temperature;BMP_pressure;BME280_temperature;BME280_humidity;BME280_pressure;Samples;Min_cycle;Max_cycle;Signal;HPM_P1;HPM_P2
2022/09/25 00:00:49;;;;;;;17.47;9.17;;;;;;;7.43;91.33;99803.09;4955736;28;20678;-71
2022/09/25 00:03:16;;;;;;;17.37;8.83;;;;;;;7.40;91.62;99804.22;4935188;28;20229;-71
2022/09/25 00:05:44;;;;;;;17.60;9.03;;;;;;;7.35;91.94;99803.78;4954016;28;20665;-71
2022/09/25 00:08:12;;;;;;;16.40;8.57;;;;;;;7.37;91.98;99797.41;4954609;28;20228;-71
2022/09/25 00:10:47;;;;;;;18.40;8.90;;;;;;;7.35;91.65;99806.44;4951502;28;20231;-71
2022/09/25 00:13:15;;;;;;;14.53;8.20;;;;;;;7.30;92.19;99790.97;4953530;28;20315;-72
2022/09/25 00:15:50;;;;;;;17.10;9.53;;;;;;;7.25;92.50;99793.19;4955124;28;20227;-72
2022/09/25 00:19:48;;;;;;;18.80;9.97;;;;;;;7.20;92.21;99798.09;4954095;28;20322;-72
2022/09/25 00:21:04;;;;;;;20.13;10.33;;;;;;;7.22;92.41;99793.50;4954419;28;20233;-71
2022/09/25 00:23:31;;;;;;;15.67;10.27;;;;;;;7.21;92.56;99793.63;4953738;28;20236;-71
2022/09/25 00:25:58;;;;;;;20.97;10.40;;;;;;;7.16;92.84;99797.53;4950679;28;21125;-71
2022/09/25 00:28:27;;;;;;;19.40;10.40;;;;;;;7.19;93.05;99802.53;4957336;28;20232;-72
2022/09/25 00:30:55;;;;;;;19.53;10.87;;;;;;;7.14;93.26;99801.28;4957543;28;20228;-72
2022/09/25 00:33:22;;;;;;;19.00;10.70;;;;;;;7.11;93.47;99799.75;4952658;28;20239;-73
2022/09/25 00:35:49;;;;;;;22.60;10.73;;;;;;;7.06;93.90;99796.69;4575704;28;22373;-72
2022/09/25 00:38:15;;;;;;;22.77;11.50;;;;;;;7.03;94.22;99793.50;4170518;28;20245;-72
2022/09/25 00:40:42;;;;;;;20.43;10.17;;;;;;;7.02;93.99;99789.97;4170593;28;20333;-73
2022/09/25 00:43:13;;;;;;;23.20;11.80;;;;;;;7.03;94.20;99791.66;4173039;28;21572;-72
2022/09/25 00:45:41;;;;;;;22.43;11.07;;;;;;;6.98;94.71;99788.63;4164233;28;23087;-71
2022/09/25 00:48:12;;;;;;;19.47;10.43;;;;;;;6.96;94.25;99785.25;4175801;28;21102;-71
2022/09/25 00:50:47;;;;;;;23.40;10.93;;;;;;;6.91;94.88;99782.19;4182098;28;21763;-72
2022/09/25 00:53:20;;;;;;;21.23;11.40;;;;;;;6.84;94.95;99779.28;4168235;28;20323;-72
2022/09/25 00:55:46;;;;;;;23.30;12.83;;;;;;;6.84;95.66;99775.78;4153036;28;20231;-72
2022/09/25 00:58:16;;;;;;;21.23;11.40;;;;;;;6.87;95.09;99780.81;4169812;28;20336;-73
2022/09/25 01:00:43;;;;;;;23.77;12.23;;;;;;;6.82;95.74;99780.38;4157910;28;20242;-73
2022/09/25 01:03:10;;;;;;;23.87;12.43;;;;;;;6.86;95.65;99785.25;4196357;28;20386;-73
2022/09/25 01:05:40;;;;;;;22.07;11.90;;;;;;;6.89;95.38;99784.16;4168423;28;20239;-72
2022/09/25 01:08:10;;;;;;;25.77;12.70;;;;;;;6.86;96.22;99787.91;4177910;28;20273;-73
2022/09/25 01:10:36;;;;;;;24.60;12.93;;;;;;;6.83;96.32;99784.69;4172557;28;23568;-71
2022/09/25 01:13:03;;;;;;;21.77;11.30;;;;;;;6.85;96.21;99785.38;4176425;28;24097;-71
2022/09/25 01:15:35;;;;;;;21.10;11.83;;;;;;;6.69;96.00;99773.50;4169234;28;21404;-71
2022/09/25 01:18:24;;;;;;;22.77;12.00;;;;;;;6.65;96.16;99788.00;4167720;28;20231;-71
2022/09/25 01:21:26;;;;;;;24.60;12.03;;;;;;;6.58;96.83;99783.38;4177725;28;20249;-71
2022/09/25 01:24:10;;;;;;;20.30;11.43;;;;;;;6.56;96.95;99783.53;4181646;28;22951;-72
2022/09/25 01:27:12;;;;;;;24.67;12.73;;;;;;;6.57;97.03;99779.91;4162449;28;20352;-71
2022/09/25 01:29:52;;;;;;;21.40;12.13;;;;;;;6.55;97.29;99776.56;4189465;28;20832;-71
2022/09/25 01:32:24;;;;;;;27.53;13.13;;;;;;;6.50;98.00;99776.94;4174570;28;20237;-72
2022/09/25 01:35:17;;;;;;;26.20;13.50;;;;;;;6.44;97.96;99772.22;4167413;28;20238;-71
2022/09/25 01:37:48;;;;;;;22.90;12.87;;;;;;;6.46;98.31;99777.34;4174816;28;20250;-72
2022/09/25 01:40:14;;;;;;;22.80;12.47;;;;;;;6.46;97.84;99774.72;4180685;28;21346;-72
2022/09/25 01:42:54;;;;;;;22.70;12.47;;;;;;;6.42;97.87;99776.81;4179288;28;20238;-72
2022/09/25 01:45:26;;;;;;;24.93;12.87;;;;;;;6.41;97.74;99771.66;4158993;28;20309;-73
2022/09/25 01:47:55;;;;;;;24.70;12.73;;;;;;;6.34;98.94;99774.00;4161664;28;23148;-72
2022/09/25 01:50:46;;;;;;;25.93;12.77;;;;;;;6.31;98.46;99769.81;4169027;28;20309;-71
2022/09/25 01:53:17;;;;;;;21.70;12.50;;;;;;;6.23;98.94;99766.19;4140489;28;20242;-72
2022/09/25 01:55:48;;;;;;;23.77;13.07;;;;;;;6.26;99.57;99764.09;4177028;28;20314;-72
2022/09/25 01:58:37;;;;;;;22.47;12.57;;;;;;;6.27;99.93;99757.00;4163541;28;20276;-72
2022/09/25 02:01:13;;;;;;;21.13;12.27;;;;;;;6.24;99.30;99758.09;4166205;28;20594;-71
2022/09/25 02:03:45;;;;;;;23.57;12.63;;;;;;;6.23;99.62;99763.53;4181054;28;20237;-72
2022/09/25 02:06:15;;;;;;;23.27;12.23;;;;;;;6.22;100.00;99761.84;4163918;28;20246;-71
2022/09/25 02:09:02;;;;;;;25.53;12.27;;;;;;;6.17;100.00;99762.25;4158950;28;22403;-71
2022/09/25 02:11:35;;;;;;;23.07;12.00;;;;;;;6.13;99.94;99758.19;4166219;28;20412;-72
2022/09/25 02:14:05;;;;;;;27.53;13.17;;;;;;;6.04;99.69;99754.56;4165060;28;21093;-72
2022/09/25 02:16:37;;;;;;;30.47;12.50;;;;;;;6.02;100.00;99760.97;4176378;28;20237;-72
2022/09/25 02:22:03;;;;;;;25.17;13.33;;;;;;;6.03;100.00;99752.06;4185834;28;20230;-73
2022/09/25 02:24:38;;;;;;;28.73;14.30;;;;;;;5.98;100.00;99746.34;4160458;28;20432;-72
2022/09/25 02:27:05;;;;;;;24.50;14.23;;;;;;;5.93;100.00;99741.41;4166330;28;20258;-72
2022/09/25 02:29:31;;;;;;;23.77;13.77;;;;;;;5.94;100.00;99737.81;4162963;28;20930;-71
2022/09/25 02:32:07;;;;;;;25.03;14.03;;;;;;;5.86;100.00;99737.63;4159218;28;20536;-72
2022/09/25 02:34:35;;;;;;;28.53;14.13;;;;;;;5.78;100.00;99730.34;4159076;28;23929;-73
2022/09/25 02:37:01;;;;;;;28.90;14.63;;;;;;;5.79;100.00;99731.22;4174359;28;20238;-74
2022/09/25 02:39:29;;;;;;;27.20;13.80;;;;;;;5.76;100.00;99732.31;4181197;28;20256;-72
2022/09/25 02:42:13;;;;;;;26.83;13.47;;;;;;;5.80;100.00;99733.69;4175766;28;22097;-73
2022/09/25 02:45:17;;;;;;;33.00;15.70;;;;;;;5.76;100.00;99732.31;4159760;28;20300;-71
2022/09/25 02:47:55;;;;;;;26.00;14.70;;;;;;;5.83;100.00;99737.88;4177744;28;20233;-73
2022/09/25 02:50:40;;;;;;;29.20;15.30;;;;;;;5.81;100.00;99735.38;4184068;28;20645;-73
2022/09/25 02:53:17;;;;;;;28.77;16.00;;;;;;;5.82;100.00;99737.06;4160273;28;20617;-71
2022/09/25 02:55:50;;;;;;;25.13;14.70;;;;;;;5.83;100.00;99728.19;4152401;28;20245;-71
2022/09/25 02:58:23;;;;;;;28.87;15.67;;;;;;;5.81;100.00;99722.19;4187057;28;25030;-72
2022/09/25 03:00:51;;;;;;;27.47;15.33;;;;;;;5.88;100.00;99723.31;4168931;28;21317;-71
2022/09/25 03:03:18;;;;;;;28.87;16.43;;;;;;;5.92;100.00;99724.75;4137250;28;21474;-70
2022/09/25 03:05:47;;;;;;;28.93;16.63;;;;;;;5.84;100.00;99729.00;4168922;28;20379;-70
2022/09/25 03:10:59;;;;;;;28.17;15.93;;;;;;;5.93;100.00;99728.22;4181423;28;21159;-71
2022/09/25 03:13:30;;;;;;;31.57;16.77;;;;;;;5.91;100.00;99723.06;4171801;28;20308;-73
2022/09/25 03:16:02;;;;;;;33.63;17.40;;;;;;;5.92;100.00;99730.03;4172656;28;20241;-72
2022/09/25 03:18:30;;;;;;;33.90;15.90;;;;;;;5.92;100.00;99727.38;4175174;28;22714;-73
2022/09/25 03:20:57;;;;;;;32.30;16.67;;;;;;;5.93;100.00;99722.94;4169986;28;20281;-71
2022/09/25 03:23:24;;;;;;;33.23;17.93;;;;;;;5.97;100.00;99719.09;4164300;28;20240;-71
2022/09/25 03:25:54;;;;;;;33.23;17.57;;;;;;;5.96;100.00;99721.88;4192288;28;21352;-71
2022/09/25 03:28:21;;;;;;;33.27;16.90;;;;;;;5.95;100.00;99717.53;4171689;28;20238;-72
2022/09/25 03:31:00;;;;;;;35.10;18.57;;;;;;;5.94;100.00;99716.69;4191664;28;20246;-71
2022/09/25 03:33:29;;;;;;;38.10;18.97;;;;;;;5.97;100.00;99716.47;4163285;28;20242;-72
2022/09/25 03:36:00;;;;;;;31.43;17.83;;;;;;;5.92;100.00;99716.81;4178362;28;21700;-73
2022/09/25 03:38:28;;;;;;;34.83;17.87;;;;;;;6.00;100.00;99723.28;4179422;28;20486;-71
2022/09/25 03:40:54;;;;;;;32.90;18.57;;;;;;;6.00;100.00;99729.38;4174916;28;21128;-72
2022/09/25 03:43:21;;;;;;;32.70;18.37;;;;;;;6.02;100.00;99721.34;4177410;28;20383;-70
2022/09/25 03:45:48;;;;;;;35.67;17.77;;;;;;;6.03;100.00;99726.47;4176088;28;20428;-74
2022/09/25 03:48:14;;;;;;;35.07;19.30;;;;;;;6.10;100.00;99729.41;4175990;28;20239;-71
2022/09/25 03:50:40;;;;;;;36.10;20.10;;;;;;;6.08;100.00;99728.72;4169944;28;20245;-71
2022/09/25 03:53:07;;;;;;;34.37;18.97;;;;;;;6.06;100.00;99717.44;4180206;28;22170;-72
2022/09/25 03:55:33;;;;;;;35.90;19.57;;;;;;;6.04;100.00;99725.53;4177081;28;23043;-71
2022/09/25 03:58:00;;;;;;;36.03;19.17;;;;;;;6.14;100.00;99709.69;4166507;28;20595;-71
2022/09/25 04:00:26;;;;;;;33.47;18.07;;;;;;;6.17;100.00;99719.16;4174596;28;21573;-72
2022/09/25 04:02:53;;;;;;;39.77;19.37;;;;;;;6.30;100.00;99720.59;4176233;28;20413;-71
2022/09/25 04:05:19;;;;;;;35.13;19.20;;;;;;;6.23;100.00;99730.03;4187590;28;20242;-71
2022/09/25 04:07:47;;;;;;;32.20;18.30;;;;;;;6.29;100.00;99732.09;4172559;28;20237;-71
2022/09/25 04:10:13;;;;;;;35.60;19.23;;;;;;;6.24;100.00;99723.75;4169279;28;20284;-73
2022/09/25 04:12:42;;;;;;;33.20;18.70;;;;;;;6.25;100.00;99728.09;4174987;28;20242;-73
2022/09/25 04:15:09;;;;;;;32.43;17.97;;;;;;;6.29;100.00;99728.63;4174793;28;20241;-71
2022/09/25 04:17:35;;;;;;;35.87;18.80;;;;;;;6.34;100.00;99729.06;4173038;28;20272;-72
2022/09/25 04:20:03;;;;;;;36.50;18.67;;;;;;;6.37;100.00;99720.03;4174509;28;20264;-72
2022/09/25 04:22:29;;;;;;;33.67;18.43;;;;;;;6.36;100.00;99727.13;4163598;28;20356;-72
2022/09/25 04:24:57;;;;;;;32.37;17.93;;;;;;;6.40;100.00;99722.41;4173032;28;20248;-71
2022/09/25 04:27:23;;;;;;;35.73;18.97;;;;;;;6.38;99.68;99721.72;4176339;28;20285;-71
2022/09/25 04:29:50;;;;;;;34.87;18.20;;;;;;;6.38;99.82;99717.25;4168308;28;20235;-72
2022/09/25 04:35:01;;;;;;;37.90;18.47;;;;;;;6.49;98.78;99721.59;4182811;28;20241;-72
2022/09/25 04:37:29;;;;;;;32.47;17.43;;;;;;;6.51;98.98;99712.56;4173280;28;20578;-73
2022/09/25 04:39:56;;;;;;;34.17;18.50;;;;;;;6.53;98.85;99715.06;4172043;28;20299;-72
2022/09/25 04:42:24;;;;;;;31.90;16.80;;;;;;;6.59;98.70;99714.50;4182399;28;20663;-71
2022/09/25 04:44:52;;;;;;;29.13;17.43;;;;;;;6.64;98.22;99717.56;4171854;28;20310;-71
2022/09/25 04:47:19;;;;;;;29.47;17.00;;;;;;;6.68;97.60;99716.34;4193941;28;20916;-71
2022/09/25 04:49:46;;;;;;;34.03;18.50;;;;;;;6.69;97.56;99715.34;4166518;28;20234;-72
2022/09/25 04:52:14;;;;;;;34.07;17.53;;;;;;;6.72;97.38;99712.44;4194066;28;20238;-71
2022/09/25 04:54:41;;;;;;;34.27;18.63;;;;;;;6.71;97.74;99715.22;4178411;28;20336;-72
2022/09/25 04:57:09;;;;;;;31.13;17.03;;;;;;;6.83;97.06;99708.81;4177903;28;22235;-71
2022/09/25 04:59:36;;;;;;;32.60;17.70;;;;;;;6.89;96.44;99710.09;4193424;28;20238;-72
2022/09/25 05:02:03;;;;;;;33.43;18.93;;;;;;;6.91;95.82;99718.72;4185956;28;20249;-72
2022/09/25 05:04:30;;;;;;;29.40;17.33;;;;;;;7.00;94.97;99703.81;4171519;28;21130;-71
2022/09/25 05:06:56;;;;;;;33.50;16.47;;;;;;;7.05;95.15;99705.06;4176764;28;20236;-71
2022/09/25 05:09:23;;;;;;;33.03;17.50;;;;;;;7.14;94.66;99709.53;4161642;28;20471;-71
2022/09/25 05:11:49;;;;;;;32.33;16.80;;;;;;;7.23;94.83;99707.00;4179006;28;23565;-71
2022/09/25 05:14:16;;;;;;;28.73;16.33;;;;;;;7.31;94.05;99715.06;4179741;28;20311;-71
2022/09/25 05:16:45;;;;;;;32.63;18.67;;;;;;;7.34;93.75;99717.44;4176245;28;20281;-74
2022/09/25 05:19:11;;;;;;;31.60;17.33;;;;;;;7.43;93.07;99721.03;4169035;28;20735;-71
2022/09/25 05:21:38;;;;;;;29.83;17.43;;;;;;;7.47;93.14;99719.75;4175501;28;21779;-72
2022/09/25 05:24:07;;;;;;;31.47;17.73;;;;;;;7.47;92.40;99722.41;4181624;28;20254;-73
2022/09/25 05:26:35;;;;;;;32.37;17.50;;;;;;;7.58;91.70;99724.91;4172363;28;20257;-72
2022/09/25 05:29:01;;;;;;;31.00;16.90;;;;;;;7.70;90.63;99725.56;4178940;28;20404;-72
2022/09/25 05:31:32;;;;;;;31.63;17.03;;;;;;;7.81;90.83;99725.38;4185637;28;22030;-77
2022/09/25 05:33:59;;;;;;;30.20;16.27;;;;;;;7.90;88.97;99732.47;4180186;28;20230;-68
2022/09/25 05:36:25;;;;;;;30.27;16.77;;;;;;;7.89;88.81;99729.94;4185476;28;21760;-67
2022/09/25 05:38:52;;;;;;;29.60;16.57;;;;;;;7.95;88.84;99740.81;4217656;28;22261;-70
2022/09/25 05:41:20;;;;;;;32.13;17.67;;;;;;;8.08;88.38;99737.00;4204126;28;20604;-67
2022/09/25 05:43:46;;;;;;;33.70;17.47;;;;;;;8.15;88.07;99746.06;4207476;28;20480;-71
2022/09/25 05:46:14;;;;;;;34.83;18.67;;;;;;;8.14;88.21;99741.72;4175141;28;20462;-69
2022/09/25 05:48:40;;;;;;;31.47;18.07;;;;;;;8.28;87.67;99746.53;4180988;28;20309;-70
2022/09/25 05:51:07;;;;;;;32.63;16.97;;;;;;;8.37;85.44;99748.28;4219105;28;20373;-74
2022/09/25 05:53:34;;;;;;;29.40;16.60;;;;;;;8.44;86.08;99744.09;4242089;28;20399;-68
2022/09/25 05:56:02;;;;;;;34.10;18.40;;;;;;;8.51;84.88;99752.31;4176012;28;20233;-71
2022/09/25 05:58:32;;;;;;;29.83;17.17;;;;;;;8.62;84.02;99738.84;4178952;28;20598;-70
2022/09/25 06:01:00;;;;;;;33.23;17.53;;;;;;;8.77;84.42;99747.09;4181983;28;20296;-69
2022/09/25 06:03:29;;;;;;;30.40;17.73;;;;;;;8.87;83.33;99752.34;4189463;28;20244;-68
2022/09/25 06:05:57;;;;;;;37.73;18.37;;;;;;;8.99;81.71;99758.25;4190419;28;20413;-68
2022/09/25 06:08:24;;;;;;;34.47;18.07;;;;;;;9.04;81.76;99756.00;4190652;28;20416;-66
2022/09/25 06:10:52;;;;;;;28.90;16.80;;;;;;;9.24;80.66;99746.88;4184518;28;20339;-69
2022/09/25 06:13:20;;;;;;;33.97;18.00;;;;;;;9.41;79.71;99755.81;4170598;28;20245;-68
2022/09/25 06:15:49;;;;;;;33.33;17.13;;;;;;;9.57;79.66;99757.75;4174754;28;25625;-68
2022/09/25 06:18:16;;;;;;;33.13;17.83;;;;;;;9.67;80.04;99755.84;4181864;28;20238;-71
2022/09/25 06:20:42;;;;;;;29.57;16.80;;;;;;;9.73;79.11;99749.88;4212619;28;22352;-68
2022/09/25 06:23:09;;;;;;;34.40;17.43;;;;;;;9.79;78.13;99752.94;4189974;28;20264;-65
2022/09/25 06:25:36;;;;;;;29.67;17.23;;;;;;;9.86;77.27;99754.78;4176324;28;26068;-70
2022/09/25 06:28:03;;;;;;;32.17;17.00;;;;;;;9.90;77.24;99749.97;4202911;28;22149;-67
2022/09/25 06:30:35;;;;;;;33.23;18.00;;;;;;;9.89;78.76;99743.84;4204348;28;20296;-71
2022/09/25 06:33:12;;;;;;;28.97;17.30;;;;;;;9.99;76.81;99754.34;4180892;28;20353;-72
2022/09/25 06:35:43;;;;;;;28.17;16.20;;;;;;;10.12;77.14;99752.09;4171355;28;20246;-73
2022/09/25 06:38:10;;;;;;;30.70;16.80;;;;;;;10.09;76.62;99749.78;4184536;28;20239;-71
2022/09/25 06:40:39;;;;;;;28.40;15.37;;;;;;;10.25;75.68;99754.31;4184237;28;21492;-74
2022/09/25 06:43:09;;;;;;;30.13;16.00;;;;;;;10.45;74.95;99759.44;4186273;28;23136;-69
2022/09/25 06:45:37;;;;;;;31.47;16.73;;;;;;;10.62;75.54;99761.13;4206352;28;20484;-74
2022/09/25 06:48:08;;;;;;;35.43;16.07;;;;;;;10.78;73.90;99758.50;4227819;28;20255;-76
2022/09/25 06:50:40;;;;;;;32.43;16.20;;;;;;;10.98;75.30;99751.06;4185511;28;22568;-69
2022/09/25 06:53:07;;;;;;;28.27;15.67;;;;;;;11.03;73.84;99747.06;4169962;28;21516;-73
2022/09/25 06:55:34;;;;;;;26.83;15.60;;;;;;;11.21;72.76;99755.72;4210722;28;21123;-72
2022/09/25 06:58:01;;;;;;;26.67;16.57;;;;;;;11.09;72.48;99749.91;4167332;28;21573;-75
2022/09/25 07:00:28;;;;;;;27.77;15.83;;;;;;;11.19;73.10;99747.94;4169602;28;20238;-71
2022/09/25 07:05:43;;;;;;;26.03;15.00;;;;;;;11.41;70.91;99743.75;4179242;28;21642;-74
2022/09/25 07:08:12;;;;;;;27.47;15.20;;;;;;;11.37;71.31;99745.09;4173029;28;20248;-71
2022/09/25 07:10:39;;;;;;;25.90;14.23;;;;;;;11.61;71.42;99746.06;4175701;28;20238;-76
2022/09/25 07:13:11;;;;;;;24.37;14.30;;;;;;;11.87;70.51;99745.00;4168654;28;20357;-75
2022/09/25 07:15:38;;;;;;;25.23;13.93;;;;;;;12.38;69.40;99740.22;4171487;28;20238;-70
2022/09/25 07:18:04;;;;;;;26.83;14.20;;;;;;;13.43;65.64;99748.56;4193951;28;20251;-68
2022/09/25 07:20:31;;;;;;;24.30;13.60;;;;;;;14.52;59.60;99756.09;4216227;28;20357;-71
2022/09/25 07:23:02;;;;;;;25.23;12.83;;;;;;;16.98;51.28;99782.16;4184424;28;20547;-70
2022/09/25 07:25:32;;;;;;;23.13;12.70;;;;;;;20.12;40.57;99793.50;4193423;28;21680;-72
2022/09/25 07:27:59;;;;;;;20.57;11.70;;;;;;;22.61;35.65;99812.97;4178258;28;20241;-69
2022/09/25 07:30:31;;;;;;;19.23;11.97;;;;;;;24.08;31.36;99823.25;4164369;28;20391;-72
2022/09/25 07:32:57;;;;;;;17.73;12.23;;;;;;;25.14;29.29;99828.44;4167864;28;20298;-69
2022/09/25 07:35:26;;;;;;;22.57;12.67;;;;;;;25.63;27.45;99830.28;4190454;28;20239;-72
2022/09/25 07:37:58;;;;;;;19.50;12.83;;;;;;;27.53;25.35;99840.28;4199369;28;20234;-71
2022/09/25 07:40:27;;;;;;;18.70;11.17;;;;;;;28.84;22.87;99836.84;4180112;28;20298;-71
2022/09/25 07:43:01;;;;;;;19.43;11.47;;;;;;;29.38;21.85;99838.75;4166479;28;20238;-72
2022/09/25 07:45:30;;;;;;;18.02;11.57;;;;;;;30.08;20.88;99840.41;4180550;28;20244;-72
2022/09/25 07:47:59;;;;;;;21.40;12.20;;;;;;;30.78;19.80;99833.63;4186702;28;20243;-72
2022/09/25 07:50:27;;;;;;;18.42;11.88;;;;;;;30.34;20.22;99829.19;4266631;28;20228;-71
2022/09/25 07:52:54;;;;;;;19.90;11.70;;;;;;;30.61;19.69;99826.69;4298452;28;22252;-68
2022/09/25 07:55:21;;;;;;;19.05;11.07;;;;;;;30.94;19.58;99829.59;4215619;28;20269;-69
2022/09/25 07:57:50;;;;;;;16.98;11.45;;;;;;;31.15;19.74;99821.06;4197008;28;21561;-70
2022/09/25 08:00:17;;;;;;;18.27;11.00;;;;;;;31.79;18.56;99827.75;4258363;28;20336;-73
2022/09/25 08:02:44;;;;;;;17.95;10.43;;;;;;;32.37;17.45;99829.22;4170193;28;24966;-70
2022/09/25 08:05:11;;;;;;;14.10;9.70;;;;;;;32.25;16.83;99818.72;4194113;28;20239;-71
2022/09/25 08:07:37;;;;;;;15.57;10.23;;;;;;;31.64;18.37;99825.28;4221301;28;20289;-73
2022/09/25 08:10:06;;;;;;;12.98;8.30;;;;;;;32.21;16.57;99823.19;4147047;28;20484;-71
2022/09/25 08:12:32;;;;;;;15.52;9.55;;;;;;;33.01;16.73;99829.28;4203548;28;20319;-73
2022/09/25 08:14:59;;;;;;;15.43;9.10;;;;;;;32.12;16.99;99819.50;4170178;28;20242;-70
2022/09/25 08:17:30;;;;;;;12.75;8.95;;;;;;;31.72;17.83;99814.38;4189836;28;20241;-70
2022/09/25 08:19:57;;;;;;;19.00;10.07;;;;;;;31.49;18.15;99816.16;4182828;28;20243;-71
2022/09/25 08:22:24;;;;;;;17.35;9.13;;;;;;;28.50;21.19;99798.38;4201567;28;20230;-72
2022/09/25 08:24:50;;;;;;;17.00;9.80;;;;;;;27.50;22.61;99788.91;4236717;28;20238;-74
2022/09/25 08:27:17;;;;;;;15.93;10.32;;;;;;;26.46;23.89;99786.16;4280182;28;22138;-70
2022/09/25 08:29:43;;;;;;;15.90;10.50;;;;;;;24.70;26.67;99776.78;4202793;28;21128;-73
2022/09/25 08:32:11;;;;;;;18.37;11.20;;;;;;;22.96;29.40;99757.75;4252150;28;20955;-72
2022/09/25 08:34:37;;;;;;;21.23;11.60;;;;;;;21.68;32.05;99760.44;4190289;28;25084;-75
2022/09/25 08:37:08;;;;;;;19.87;11.93;;;;;;;20.07;35.78;99743.91;4172579;29;20241;-71
2022/09/25 08:39:35;;;;;;;17.10;11.40;;;;;;;19.70;37.42;99736.59;4165085;28;20250;-72
2022/09/25 08:42:05;;;;;;;21.10;12.27;;;;;;;19.63;37.32;99733.09;4172281;28;22044;-73
2022/09/25 08:44:41;;;;;;;20.20;11.83;;;;;;;19.04;39.24;99727.13;4151807;29;20243;-71
2022/09/25 08:50:21;;;;;;;21.03;11.57;;;;;;;17.85;43.03;99712.28;4173333;28;20237;-73
2022/09/25 08:52:52;;;;;;;17.87;11.60;;;;;;;17.98;43.42;99716.78;4206515;28;20281;-71
2022/09/25 08:56:13;;;;;;;19.23;13.00;;;;;;;17.42;45.03;99707.31;4179895;28;20544;-72
2022/09/25 08:58:19;;;;;;;20.57;12.37;;;;;;;17.39;45.90;99707.72;4163392;28;20348;-73
2022/09/25 09:00:46;;;;;;;19.90;11.23;;;;;;;17.86;45.07;99706.69;4182616;28;20227;-71
2022/09/25 09:03:14;;;;;;;18.67;10.57;;;;;;;18.33;42.37;99706.50;4214559;28;20246;-72
2022/09/25 09:05:44;;;;;;;15.87;9.87;;;;;;;18.53;42.22;99709.94;4155794;28;21618;-72
2022/09/25 09:08:19;;;;;;;15.60;9.93;;;;;;;18.31;42.26;99701.38;4190370;28;20239;-71
2022/09/25 09:10:52;;;;;;;16.00;9.70;;;;;;;18.23;43.87;99703.47;4175515;28;21206;-71
2022/09/25 09:13:29;;;;;;;19.40;10.67;;;;;;;18.26;43.03;99694.94;4167315;28;23555;-73
2022/09/25 09:16:00;;;;;;;17.73;10.50;;;;;;;18.27;43.95;99693.91;4153597;28;20243;-74
2022/09/25 09:18:35;;;;;;;16.83;10.23;;;;;;;18.26;44.27;99692.25;4190175;28;20242;-74
2022/09/25 09:21:27;;;;;;;23.37;11.63;;;;;;;18.58;43.31;99689.63;4168328;28;21164;-70
2022/09/25 09:24:25;;;;;;;16.07;9.73;;;;;;;18.93;42.80;99677.41;4155536;28;20239;-73
2022/09/25 09:27:15;;;;;;;15.53;9.43;;;;;;;19.25;41.02;99690.88;4166358;28;20244;-73
2022/09/25 09:30:14;;;;;;;13.50;8.73;;;;;;;18.95;41.16;99683.41;4196207;28;20236;-72
2022/09/25 09:33:00;;;;;;;16.60;9.03;;;;;;;18.77;41.52;99678.75;4193306;28;20242;-75
2022/09/25 09:35:48;;;;;;;16.50;8.73;;;;;;;18.94;41.29;99683.59;4194127;28;20250;-74
2022/09/25 09:38:20;;;;;;;15.70;7.70;;;;;;;18.81;41.24;99679.16;4186920;28;20471;-72
2022/09/25 09:41:25;;;;;;;11.93;7.63;;;;;;;18.44;42.46;99668.13;4175248;28;21803;-75
2022/09/25 09:44:18;;;;;;;14.10;8.03;;;;;;;18.43;43.33;99669.19;4175347;28;22648;-72
2022/09/25 09:47:16;;;;;;;13.97;7.77;;;;;;;18.16;43.73;99667.66;4207874;28;20302;-70
2022/09/25 09:49:49;;;;;;;12.70;8.07;;;;;;;18.05;44.98;99663.75;4180018;28;22619;-70
2022/09/25 09:52:20;;;;;;;12.20;7.63;;;;;;;17.71;45.45;99650.38;4186502;28;20416;-73
2022/09/25 09:54:56;;;;;;;12.87;7.17;;;;;;;17.35;47.45;99641.94;4176333;28;20223;-74
2022/09/25 09:57:26;;;;;;;12.43;7.70;;;;;;;17.30;48.14;99638.03;4157791;28;21129;-73
2022/09/25 09:59:56;;;;;;;16.23;7.60;;;;;;;17.44;47.35;99636.16;4192506;28;20246;-74
2022/09/25 10:02:39;;;;;;;12.33;7.47;;;;;;;17.42;47.46;99632.00;4169299;28;20306;-75
2022/09/25 10:05:30;;;;;;;14.73;7.57;;;;;;;17.36;47.81;99625.59;4166419;28;20951;-75
2022/09/25 10:07:57;;;;;;;12.33;7.13;;;;;;;17.38;46.66;99620.03;4201964;28;23026;-72
2022/09/25 10:10:36;;;;;;;11.47;6.63;;;;;;;17.48;46.79;99620.41;4172750;28;20238;-72
2022/09/25 10:13:06;;;;;;;10.70;6.57;;;;;;;17.47;47.02;99624.97;4175620;28;20259;-69
2022/09/25 10:15:37;;;;;;;12.83;7.23;;;;;;;17.52;45.86;99627.03;4157244;28;21013;-73
2022/09/25 10:18:05;;;;;;;10.73;6.50;;;;;;;17.60;44.67;99624.09;4183609;28;22680;-72
2022/09/25 10:20:41;;;;;;;9.73;5.60;;;;;;;17.56;44.38;99620.19;4160510;28;22239;-72
2022/09/25 10:23:31;;;;;;;9.67;6.10;;;;;;;17.72;42.94;99621.59;4183402;28;21784;-70
2022/09/25 10:25:58;;;;;;;10.40;5.30;;;;;;;17.54;41.97;99616.88;4161499;28;20246;-70
2022/09/25 10:28:31;;;;;;;8.70;5.97;;;;;;;17.22;43.59;99608.66;4205368;28;21349;-71
2022/09/25 10:30:58;;;;;;;10.57;6.10;;;;;;;17.41;43.83;99616.91;4161324;28;22302;-71
2022/09/25 10:33:28;;;;;;;10.23;6.13;;;;;;;17.43;42.81;99617.53;4163762;28;20829;-71
2022/09/25 10:35:55;;;;;;;9.47;5.83;;;;;;;17.39;42.53;99613.59;4168279;28;22938;-72
2022/09/25 10:38:43;;;;;;;14.50;6.30;;;;;;;17.23;42.94;99604.09;4171886;28;20553;-73
2022/09/25 10:41:12;;;;;;;10.20;5.83;;;;;;;17.19;43.23;99606.38;4176327;28;20249;-73
2022/09/25 10:44:01;;;;;;;8.07;5.63;;;;;;;17.39;43.86;99605.53;4136249;28;23298;-72
2022/09/25 10:52:14;;;;;;;12.30;5.70;;;;;;;17.42;42.03;99602.41;4173331;28;20247;-73
2022/09/25 10:54:41;;;;;;;10.00;6.00;;;;;;;17.47;40.89;99594.56;4176950;28;22227;-72
2022/09/25 10:57:24;;;;;;;15.70;6.20;;;;;;;17.29;42.76;99598.72;4186080;28;20256;-75
2022/09/25 10:59:51;;;;;;;13.07;5.67;;;;;;;17.56;42.20;99585.22;4174194;28;22104;-72
2022/09/25 11:02:41;;;;;;;9.53;5.67;;;;;;;17.52;41.38;99587.50;4175674;28;20565;-71
2022/09/25 11:05:17;;;;;;;10.97;5.80;;;;;;;17.54;40.66;99587.28;4147734;28;20227;-69
2022/09/25 11:07:53;;;;;;;9.67;6.13;;;;;;;17.54;41.52;99578.41;4174415;28;20238;-68
2022/09/25 11:10:22;;;;;;;8.07;5.67;;;;;;;17.81;42.21;99573.78;4167865;28;21152;-68
2022/09/25 11:12:50;;;;;;;10.57;6.53;;;;;;;18.02;41.28;99572.63;4175549;28;20246;-68
2022/09/25 11:15:19;;;;;;;11.13;6.07;;;;;;;18.20;40.73;99574.63;4163062;28;22368;-68
2022/09/25 11:17:51;;;;;;;8.53;4.90;;;;;;;18.18;37.63;99579.41;4156923;28;20237;-66
2022/09/25 11:20:30;;;;;;;9.00;4.70;;;;;;;18.04;37.47;99573.25;4175825;28;20332;-73
2022/09/25 11:23:16;;;;;;;13.35;6.00;;;;;;;17.84;38.74;99576.03;4208855;28;20566;-71
2022/09/25 11:26:04;;;;;;;8.07;5.00;;;;;;;17.80;38.92;99564.84;4159627;28;26451;-68
2022/09/25 11:28:48;;;;;;;10.63;4.90;;;;;;;17.77;42.39;99557.22;4197298;28;20296;-64
2022/09/25 11:31:40;;;;;;;8.60;5.13;;;;;;;17.85;40.42;99545.41;4163325;28;21894;-68
2022/09/25 11:34:19;;;;;;;6.77;4.60;;;;;;;17.88;39.72;99548.47;4172499;28;20416;-68
2022/09/25 11:37:01;;;;;;;8.67;5.63;;;;;;;18.03;40.05;99553.59;4176113;28;20240;-66
2022/09/25 11:42:41;;;;;;;8.37;5.63;;;;;;;18.09;40.53;99558.09;4205343;28;25645;-68
2022/09/25 11:45:29;;;;;;;7.37;5.53;;;;;;;17.97;40.70;99553.63;4204760;28;20487;-69
2022/09/25 11:48:04;;;;;;;10.70;5.70;;;;;;;17.87;40.28;99548.72;4174511;28;20420;-65
2022/09/25 11:51:08;;;;;;;9.73;6.17;;;;;;;17.87;42.08;99549.53;4171800;28;20300;-70
2022/09/25 11:54:02;;;;;;;11.30;5.83;;;;;;;17.68;41.42;99562.00;4166268;28;21787;-69
2022/09/25 11:57:30;;;;;;;9.63;6.57;;;;;;;17.48;43.30;99550.47;4174658;28;21310;-70
2022/09/25 12:00:13;;;;;;;9.63;6.50;;;;;;;17.24;43.23;99543.94;4161186;28;20266;-70
2022/09/25 12:02:51;;;;;;;9.67;6.00;;;;;;;17.51;43.02;99540.13;4172706;28;22037;-70
2022/09/25 12:05:27;;;;;;;11.37;6.17;;;;;;;17.67;42.23;99538.81;4190154;28;20324;-67
2022/09/25 12:08:03;;;;;;;8.07;5.53;;;;;;;17.92;41.33;99528.16;4179635;28;20383;-68